Fowler, Illinois
Current Conditions -  °F | °C
As of 9:54 AM on Friday 19 Dec 2014 (Local Time) from KUIN Reporting Station
Overcast Overcast  
Wind Chill: 25°   Ceiling: 5500
Heat Index: 30°   Visibility: 7mi
Dew Point: 23°   Wind: 5mph
Humidity: 75%   Direction: 90°E
Pressure: 30.31"   Gusts: NA
Location:  40.01°N, 91.26°W
Report Text: KUIN 191554Z AUTO 09004KT 7SM OVC055 M01/M05 A3031 RMK AO2 SLP273 T10111050
Loading
Personal Weather Stations






























Interactive Weather Map New forecast layout! Learn more

10-Day Weather Forecast

Advertisements
Track Severe Weather on mobile